Time;durP1;ratioP1;P1;durP2;ratioP2;P2;SDS_P1;SDS_P2;PMS_P1;PMS_P2;Temp;Humidity;BMP_temperature;BMP_pressure;BME280_temperature;BME280_humidity;BME280_pressure;Samples;Min_cycle;Max_cycle;Signal;HPM_P1;HPM_P2
2021/04/27 00:01:50;;;;;;;6.97;2.70;;;2.10;99.90;;;;;;5018498;28;20026;-80
2021/04/27 00:04:16;;;;;;;5.50;2.95;;;2.00;99.80;;;;;;5019100;28;20045;-80
2021/04/27 00:06:44;;;;;;;6.47;2.72;;;2.00;99.90;;;;;;5028277;28;20507;-80
2021/04/27 00:09:10;;;;;;;4.70;2.38;;;2.00;99.90;;;;;;5021283;28;20029;-80
2021/04/27 00:11:37;;;;;;;5.55;2.83;;;2.00;99.90;;;;;;5024545;28;20026;-80
2021/04/27 00:14:04;;;;;;;6.30;2.60;;;2.00;99.90;;;;;;5031015;28;20086;-80
2021/04/27 00:16:30;;;;;;;6.70;2.58;;;2.00;99.90;;;;;;5008652;28;20029;-80
2021/04/27 00:18:55;;;;;;;7.38;2.88;;;1.90;99.90;;;;;;5017405;28;20025;-80
2021/04/27 00:21:21;;;;;;;4.65;2.67;;;1.90;99.90;;;;;;5015726;28;20629;-80
2021/04/27 00:23:47;;;;;;;7.38;3.50;;;1.80;99.90;;;;;;5023747;28;20041;-80
2021/04/27 00:26:12;;;;;;;5.57;3.08;;;1.80;99.90;;;;;;5027437;28;20034;-80
2021/04/27 00:28:38;;;;;;;6.18;2.47;;;1.80;99.90;;;;;;5024654;28;20033;-80
2021/04/27 00:31:03;;;;;;;7.50;3.15;;;1.80;99.90;;;;;;5024372;28;20030;-79
2021/04/27 00:33:29;;;;;;;8.73;3.60;;;1.70;99.90;;;;;;5023971;28;20109;-80
2021/04/27 00:35:54;;;;;;;9.45;4.03;;;1.70;99.90;;;;;;5024585;28;20057;-80
2021/04/27 00:38:20;;;;;;;7.88;4.03;;;1.70;99.90;;;;;;5025975;28;20030;-80
2021/04/27 00:40:45;;;;;;;11.05;3.50;;;1.70;99.90;;;;;;5021854;28;20034;-80
2021/04/27 00:43:11;;;;;;;4.88;3.08;;;1.60;99.90;;;;;;5026612;28;20033;-80
2021/04/27 00:45:37;;;;;;;7.63;3.85;;;1.60;99.90;;;;;;5010242;28;20425;-80
2021/04/27 00:48:03;;;;;;;5.32;3.00;;;1.60;99.90;;;;;;5021659;28;20100;-80
2021/04/27 00:50:31;;;;;;;5.70;2.72;;;1.60;99.90;;;;;;5021932;28;20069;-80
2021/04/27 00:52:57;;;;;;;10.43;3.55;;;1.60;99.90;;;;;;5015852;28;20116;-80
2021/04/27 00:55:23;;;;;;;7.15;2.88;;;1.50;99.90;;;;;;5027572;28;20026;-80
2021/04/27 00:57:59;;;;;;;4.43;2.72;;;1.50;99.90;;;;;;5015942;28;20030;-80
2021/04/27 01:00:27;;;;;;;4.90;2.63;;;1.50;99.90;;;;;;5014168;28;20100;-79
2021/04/27 01:02:53;;;;;;;13.85;3.45;;;1.50;99.90;;;;;;5021040;28;20029;-79
2021/04/27 01:05:25;;;;;;;7.38;2.50;;;1.50;99.90;;;;;;5024662;28;20071;-80
2021/04/27 01:08:19;;;;;;;5.68;3.25;;;1.50;99.90;;;;;;5023473;28;20079;-80
2021/04/27 01:11:15;;;;;;;6.40;2.63;;;1.50;99.90;;;;;;5024109;28;20030;-80
2021/04/27 01:13:59;;;;;;;10.98;3.67;;;1.50;99.90;;;;;;5023983;28;20060;-80
2021/04/27 01:16:26;;;;;;;11.40;3.38;;;1.40;99.90;;;;;;5008084;28;20029;-80
2021/04/27 01:18:53;;;;;;;8.02;2.70;;;1.40;99.90;;;;;;5024715;28;20122;-80
2021/04/27 01:21:22;;;;;;;6.38;3.40;;;1.40;99.90;;;;;;5026058;28;20044;-80
2021/04/27 01:24:00;;;;;;;11.77;2.55;;;1.30;99.90;;;;;;5025415;28;20040;-79
2021/04/27 01:26:31;;;;;;;13.80;3.38;;;1.30;99.90;;;;;;5020028;28;20029;-79
2021/04/27 01:28:57;;;;;;;10.88;2.85;;;1.30;99.90;;;;;;5025642;28;20063;-79
2021/04/27 01:31:24;;;;;;;9.88;3.55;;;1.30;99.90;;;;;;5019040;28;20029;-79
2021/04/27 01:33:50;;;;;;;7.20;3.00;;;1.20;99.90;;;;;;5028458;28;20041;-79
2021/04/27 01:36:16;;;;;;;16.33;3.28;;;1.20;99.90;;;;;;5024204;28;20026;-79
2021/04/27 01:38:43;;;;;;;6.68;3.33;;;1.20;99.90;;;;;;5014896;28;20116;-79
2021/04/27 01:41:09;;;;;;;8.45;3.75;;;1.20;99.90;;;;;;5015696;28;20040;-79
2021/04/27 01:43:35;;;;;;;12.60;3.70;;;1.20;99.90;;;;;;5025836;28;20025;-79
2021/04/27 01:46:05;;;;;;;11.85;4.13;;;1.10;99.90;;;;;;5024298;28;20122;-79
2021/04/27 01:48:37;;;;;;;7.72;3.45;;;1.10;99.90;;;;;;5016936;28;20415;-79
2021/04/27 01:51:04;;;;;;;;;;;1.10;99.90;;;;;;5020752;28;20072;-79
2021/04/27 01:53:31;;;;;;;3.80;2.33;;;1.10;99.90;;;;;;5026620;28;19909;-79
2021/04/27 01:55:56;;;;;;;7.35;3.25;;;1.00;99.90;;;;;;5015449;28;20038;-79
2021/04/27 01:58:22;;;;;;;5.07;2.45;;;1.00;99.90;;;;;;5022066;28;20326;-79
2021/04/27 02:00:47;;;;;;;4.38;1.95;;;1.00;99.90;;;;;;5026751;28;20065;-79
2021/04/27 02:03:13;;;;;;;5.50;2.95;;;1.00;99.90;;;;;;5023627;28;20100;-79
2021/04/27 02:05:39;;;;;;;6.30;3.40;;;1.00;99.90;;;;;;5020640;28;20073;-79
2021/04/27 02:08:05;;;;;;;5.43;3.38;;;1.00;99.90;;;;;;5015877;28;20037;-79
2021/04/27 02:10:31;;;;;;;7.55;2.60;;;0.90;99.90;;;;;;5018608;28;20037;-79
2021/04/27 02:13:02;;;;;;;5.88;2.53;;;0.90;99.90;;;;;;5022666;28;20473;-79
2021/04/27 02:15:29;;;;;;;9.23;3.13;;;0.90;99.90;;;;;;5026287;28;20384;-79
2021/04/27 02:18:32;;;;;;;5.30;2.97;;;0.90;99.90;;;;;;5012829;28;20608;-79
2021/04/27 02:21:00;;;;;;;6.63;2.67;;;0.80;99.90;;;;;;5009739;28;20572;-79
2021/04/27 02:23:28;;;;;;;7.47;3.13;;;0.80;99.90;;;;;;5016463;28;20381;-79
2021/04/27 02:25:54;;;;;;;6.13;2.88;;;0.80;99.90;;;;;;5021462;28;20397;-79
2021/04/27 02:28:20;;;;;;;6.57;2.10;;;0.80;99.90;;;;;;5025106;28;20029;-79
2021/04/27 02:30:47;;;;;;;7.65;2.40;;;0.80;99.90;;;;;;5023210;28;20036;-79
2021/04/27 02:33:16;;;;;;;6.20;2.40;;;0.80;99.90;;;;;;5021166;28;20124;-79
2021/04/27 02:35:43;;;;;;;5.25;2.10;;;0.70;99.90;;;;;;5018028;28;20064;-79
2021/04/27 02:38:10;;;;;;;4.65;2.20;;;0.70;99.90;;;;;;5016234;28;20110;-79
2021/04/27 02:40:36;;;;;;;5.22;2.30;;;0.70;99.90;;;;;;5017092;28;20033;-79
2021/04/27 02:43:02;;;;;;;6.20;2.60;;;0.70;99.90;;;;;;5015123;28;20502;-79
2021/04/27 02:45:31;;;;;;;7.70;2.50;;;0.60;99.90;;;;;;5013705;28;20026;-79
2021/04/27 02:48:15;;;;;;;5.18;2.55;;;0.70;99.90;;;;;;5019207;28;20033;-79
2021/04/27 02:50:43;;;;;;;4.15;2.60;;;0.60;99.90;;;;;;5012608;28;20054;-78
2021/04/27 02:53:10;;;;;;;3.70;2.40;;;0.60;99.90;;;;;;5019833;28;20021;-79
2021/04/27 02:55:36;;;;;;;6.57;3.13;;;0.60;99.90;;;;;;5016329;28;20072;-79
2021/04/27 02:58:01;;;;;;;3.67;2.17;;;0.50;99.90;;;;;;5023598;28;20038;-79
2021/04/27 03:00:27;;;;;;;4.05;2.03;;;0.60;99.90;;;;;;5020280;28;20499;-79
2021/04/27 03:02:52;;;;;;;3.67;1.90;;;0.50;99.90;;;;;;5019667;28;20727;-79
2021/04/27 03:05:18;;;;;;;3.97;2.38;;;0.50;99.90;;;;;;5022423;28;20473;-79
2021/04/27 03:07:44;;;;;;;3.78;2.15;;;0.50;99.90;;;;;;5021444;28;20468;-79
2021/04/27 03:10:10;;;;;;;5.82;2.22;;;0.50;99.90;;;;;;5024096;28;20090;-79
2021/04/27 03:12:36;;;;;;;4.88;2.17;;;0.50;99.90;;;;;;5030229;28;20025;-79
2021/04/27 03:15:02;;;;;;;3.30;1.95;;;0.40;99.90;;;;;;5018001;28;20084;-79
2021/04/27 03:17:28;;;;;;;3.47;2.08;;;0.40;99.90;;;;;;5025468;28;20037;-79
2021/04/27 03:19:53;;;;;;;11.82;2.03;;;0.40;99.90;;;;;;5019314;28;20025;-79
2021/04/27 03:22:19;;;;;;;1.65;1.20;;;0.40;99.90;;;;;;5021307;28;20396;-80
2021/04/27 03:24:45;;;;;;;4.28;1.70;;;0.40;99.90;;;;;;5025891;28;20084;-79
2021/04/27 03:27:10;;;;;;;5.97;2.28;;;0.40;99.90;;;;;;5018695;28;20076;-79
2021/04/27 03:29:38;;;;;;;3.85;2.25;;;0.30;99.90;;;;;;5022974;28;20030;-79
2021/04/27 03:32:04;;;;;;;1.80;1.60;;;0.30;99.90;;;;;;5028653;28;20072;-79
2021/04/27 03:34:29;;;;;;;4.72;2.15;;;0.30;99.90;;;;;;5013649;28;20025;-79
2021/04/27 03:36:55;;;;;;;4.88;2.33;;;0.30;99.90;;;;;;5021395;28;20084;-79
2021/04/27 03:39:20;;;;;;;2.72;1.75;;;0.30;99.90;;;;;;5026669;28;20052;-79
2021/04/27 03:41:46;;;;;;;1.83;1.27;;;0.30;99.90;;;;;;5021718;28;20107;-79
2021/04/27 03:44:11;;;;;;;2.03;1.42;;;0.30;99.90;;;;;;5021245;28;20409;-79
2021/04/27 03:46:37;;;;;;;4.15;1.80;;;0.30;99.90;;;;;;5023306;28;20040;-79
2021/04/27 03:49:02;;;;;;;3.38;1.95;;;0.30;99.90;;;;;;5028757;28;20075;-79
2021/04/27 03:51:28;;;;;;;2.33;1.30;;;0.30;99.90;;;;;;5025428;28;20049;-79
2021/04/27 03:53:53;;;;;;;4.28;1.73;;;0.30;99.90;;;;;;5025184;28;20385;-79
2021/04/27 03:56:19;;;;;;;4.18;2.05;;;0.30;99.90;;;;;;5020411;28;20100;-79
2021/04/27 03:58:45;;;;;;;4.45;2.20;;;0.30;99.90;;;;;;5022524;28;20633;-78
2021/04/27 04:01:10;;;;;;;2.95;1.85;;;0.30;99.90;;;;;;5026262;28;20488;-80
2021/04/27 04:03:40;;;;;;;2.47;1.75;;;0.30;99.90;;;;;;5020215;28;20133;-80
2021/04/27 04:06:06;;;;;;;2.80;1.52;;;0.30;99.90;;;;;;5019336;28;20503;-79
2021/04/27 04:08:32;;;;;;;1.88;1.67;;;0.30;99.90;;;;;;5020391;28;20029;-79
2021/04/27 04:10:58;;;;;;;1.67;1.52;;;0.30;99.90;;;;;;5021891;28;20034;-79
2021/04/27 04:13:23;;;;;;;3.65;1.90;;;0.30;99.90;;;;;;5023877;28;20028;-79
2021/04/27 04:15:49;;;;;;;16.85;2.25;;;0.30;99.90;;;;;;5019464;28;20022;-79
2021/04/27 04:18:14;;;;;;;4.05;1.52;;;0.30;99.90;;;;;;5018714;28;20037;-79
2021/04/27 04:20:40;;;;;;;2.85;2.03;;;0.40;99.90;;;;;;5023198;28;20045;-79
2021/04/27 04:23:06;;;;;;;2.63;1.90;;;0.40;99.90;;;;;;5027785;28;20108;-80
2021/04/27 04:25:31;;;;;;;3.83;2.13;;;0.40;99.90;;;;;;5030744;28;20556;-80
2021/04/27 04:27:57;;;;;;;10.30;1.73;;;0.40;99.90;;;;;;5015971;28;20025;-80
2021/04/27 04:30:24;;;;;;;4.82;1.70;;;0.40;99.90;;;;;;5024821;28;20101;-80
2021/04/27 04:32:50;;;;;;;4.13;2.00;;;0.40;99.90;;;;;;5019639;28;20052;-80
2021/04/27 04:35:18;;;;;;;5.50;1.80;;;0.50;99.90;;;;;;5019168;28;20445;-80
2021/04/27 04:37:43;;;;;;;5.55;1.48;;;0.50;99.90;;;;;;5021145;28;20034;-80
2021/04/27 04:40:10;;;;;;;5.03;1.85;;;0.50;99.90;;;;;;5025753;28;20072;-80
2021/04/27 04:42:36;;;;;;;5.47;2.47;;;0.50;99.90;;;;;;5029081;28;20048;-80
2021/04/27 04:45:07;;;;;;;21.58;2.35;;;0.60;99.90;;;;;;5019491;28;20022;-80
2021/04/27 04:47:32;;;;;;;3.92;2.55;;;0.60;99.90;;;;;;5012871;28;20048;-80
2021/04/27 04:49:58;;;;;;;4.63;2.20;;;0.70;99.90;;;;;;5014247;28;20488;-80
2021/04/27 04:52:23;;;;;;;4.10;2.42;;;0.70;99.90;;;;;;5016633;28;20431;-80
2021/04/27 04:54:49;;;;;;;6.65;2.35;;;0.80;99.90;;;;;;5027892;28;20034;-80
2021/04/27 04:57:15;;;;;;;3.15;1.92;;;0.90;99.90;;;;;;5027072;28;20421;-80
2021/04/27 04:59:41;;;;;;;6.10;2.60;;;0.90;99.90;;;;;;5018744;28;20057;-80
2021/04/27 05:02:06;;;;;;;3.28;2.40;;;1.00;99.90;;;;;;5020735;28;20029;-80
2021/04/27 05:04:32;;;;;;;4.97;2.33;;;1.10;99.90;;;;;;5028285;28;20017;-80
2021/04/27 05:07:03;;;;;;;7.45;2.80;;;1.10;99.90;;;;;;5026891;28;20029;-80
2021/04/27 05:09:28;;;;;;;12.35;2.03;;;1.20;99.90;;;;;;5020383;28;20037;-80
2021/04/27 05:11:54;;;;;;;8.00;2.17;;;1.30;99.90;;;;;;5021188;28;20029;-80
2021/04/27 05:14:20;;;;;;;10.60;2.88;;;1.40;99.90;;;;;;5022529;28;20017;-80
2021/04/27 05:16:46;;;;;;;9.10;2.17;;;1.40;99.90;;;;;;5023005;28;20083;-81
2021/04/27 05:19:12;;;;;;;1.30;1.20;;;1.60;99.90;;;;;;5023586;28;20111;-80
2021/04/27 05:21:39;;;;;;;4.80;1.40;;;1.60;99.90;;;;;;5020557;28;20064;-80
2021/04/27 05:24:06;;;;;;;3.13;1.60;;;1.80;99.90;;;;;;5017227;28;20455;-76
2021/04/27 05:26:32;;;;;;;6.53;1.20;;;1.90;99.00;;;;;;5022013;28;20033;-74
2021/04/27 05:28:57;;;;;;;4.68;1.20;;;2.10;97.80;;;;;;5022568;28;20438;-74
2021/04/27 05:31:23;;;;;;;7.53;1.38;;;2.20;96.30;;;;;;5023147;28;20028;-74
2021/04/27 05:33:48;;;;;;;0.70;0.70;;;2.30;94.70;;;;;;5025294;28;20040;-76
2021/04/27 05:36:14;;;;;;;1.55;1.27;;;2.50;93.20;;;;;;5014465;28;20103;-75
2021/04/27 05:38:39;;;;;;;1.98;1.10;;;2.60;92.70;;;;;;5022985;28;20084;-75
2021/04/27 05:41:05;;;;;;;1.45;0.80;;;2.80;92.50;;;;;;5023332;28;20476;-74
2021/04/27 05:43:31;;;;;;;1.27;1.02;;;2.90;91.30;;;;;;5020630;28;20181;-73
2021/04/27 05:45:56;;;;;;;0.93;0.85;;;3.00;90.90;;;;;;5024321;28;20029;-73
2021/04/27 05:48:21;;;;;;;2.05;1.08;;;3.20;88.80;;;;;;5020240;28;20029;-74
2021/04/27 05:50:47;;;;;;;2.40;1.35;;;3.30;88.80;;;;;;5014464;28;20074;-74
2021/04/27 05:53:21;;;;;;;1.05;0.77;;;3.40;87.20;;;;;;5027794;28;20053;-75
2021/04/27 05:55:47;;;;;;;2.22;1.42;;;3.50;86.10;;;;;;4998907;28;20088;-76
2021/04/27 05:58:12;;;;;;;1.38;1.25;;;3.60;84.50;;;;;;5022759;28;20029;-75
2021/04/27 06:00:38;;;;;;;2.05;0.95;;;3.70;83.70;;;;;;5021759;28;20056;-75
2021/04/27 06:03:04;;;;;;;1.38;1.10;;;3.90;84.30;;;;;;5016867;28;20021;-75
2021/04/27 06:05:31;;;;;;;1.83;1.10;;;3.90;82.60;;;;;;5027403;28;20060;-75
2021/04/27 06:07:58;;;;;;;0.85;0.82;;;4.00;82.80;;;;;;5001935;28;20021;-75
2021/04/27 06:10:37;;;;;;;4.05;0.88;;;4.10;83.10;;;;;;5024322;28;20017;-75
2021/04/27 06:13:02;;;;;;;1.73;1.23;;;4.20;81.90;;;;;;5023784;28;20040;-75
2021/04/27 06:15:28;;;;;;;1.95;1.30;;;4.20;80.70;;;;;;5022999;28;20106;-75
2021/04/27 06:17:53;;;;;;;1.83;1.13;;;4.30;80.40;;;;;;5025522;28;20029;-75
2021/04/27 06:20:19;;;;;;;2.00;1.38;;;4.40;80.00;;;;;;5024858;28;20061;-75
2021/04/27 06:22:45;;;;;;;3.15;1.65;;;4.50;79.50;;;;;;5019957;28;20443;-76
2021/04/27 06:25:11;;;;;;;2.05;1.00;;;4.60;79.60;;;;;;5023024;28;20053;-75
2021/04/27 06:27:37;;;;;;;2.65;0.88;;;4.60;80.00;;;;;;5019608;28;20155;-76
2021/04/27 06:30:07;;;;;;;2.53;1.20;;;4.70;78.70;;;;;;5022966;28;20038;-74
2021/04/27 06:32:32;;;;;;;1.90;0.90;;;4.80;77.50;;;;;;5007128;28;20096;-74
2021/04/27 06:34:58;;;;;;;6.03;1.30;;;4.90;77.70;;;;;;5005830;28;20033;-74
2021/04/27 06:37:24;;;;;;;1.17;1.02;;;5.00;75.80;;;;;;5023918;28;20172;-74
2021/04/27 06:39:49;;;;;;;1.63;1.10;;;5.20;76.80;;;;;;5025424;28;20041;-75
2021/04/27 06:42:15;;;;;;;1.95;1.13;;;5.20;76.30;;;;;;5023300;28;20530;-75
2021/04/27 06:44:41;;;;;;;1.92;0.98;;;5.30;76.20;;;;;;5029505;28;20112;-74
2021/04/27 06:47:08;;;;;;;1.25;1.00;;;5.50;73.60;;;;;;5011290;28;20087;-75
2021/04/27 06:49:35;;;;;;;1.67;1.02;;;5.60;73.50;;;;;;5025775;28;20112;-74
2021/04/27 06:52:01;;;;;;;9.75;0.93;;;5.70;73.30;;;;;;5008575;28;20049;-74
2021/04/27 06:54:27;;;;;;;1.65;0.70;;;5.80;72.50;;;;;;5027009;28;20048;-75
2021/04/27 06:56:52;;;;;;;1.52;1.15;;;5.90;71.30;;;;;;5028060;28;20975;-74
2021/04/27 06:59:20;;;;;;;2.78;1.50;;;6.00;70.30;;;;;;5023326;28;20515;-74
2021/04/27 07:01:47;;;;;;;1.98;0.90;;;6.10;69.90;;;;;;5020734;28;20483;-75
2021/04/27 07:04:13;;;;;;;0.85;0.70;;;6.20;69.10;;;;;;5024737;28;20100;-72
2021/04/27 07:06:48;;;;;;;1.20;0.98;;;6.20;68.30;;;;;;5025444;28;20112;-78
2021/04/27 07:09:13;;;;;;;2.00;0.80;;;6.40;65.20;;;;;;5023449;28;20037;-77
2021/04/27 07:11:39;;;;;;;2.35;0.70;;;6.40;64.80;;;;;;5009984;28;20044;-78
2021/04/27 07:14:07;;;;;;;1.25;0.88;;;6.50;64.70;;;;;;5026347;28;20036;-78
2021/04/27 07:16:33;;;;;;;1.58;0.80;;;6.60;63.40;;;;;;5022745;28;20038;-78
2021/04/27 07:18:58;;;;;;;0.93;0.75;;;6.60;62.70;;;;;;5026920;28;20079;-79
2021/04/27 07:21:24;;;;;;;0.45;0.45;;;6.70;62.70;;;;;;5017715;28;20029;-78
2021/04/27 07:23:49;;;;;;;0.95;0.45;;;6.80;60.50;;;;;;5005467;28;20538;-78
2021/04/27 07:26:15;;;;;;;0.50;0.50;;;6.90;59.20;;;;;;5026162;28;20043;-78
2021/04/27 07:28:41;;;;;;;2.72;1.20;;;6.90;59.60;;;;;;5001081;28;20055;-77
2021/04/27 07:31:07;;;;;;;1.95;0.80;;;7.10;60.40;;;;;;5025048;28;20333;-77
2021/04/27 07:33:32;;;;;;;0.75;0.55;;;7.20;58.50;;;;;;5024161;28;20683;-77
2021/04/27 07:35:58;;;;;;;1.10;0.68;;;7.30;58.20;;;;;;5025331;28;20029;-77
2021/04/27 07:38:24;;;;;;;0.45;0.45;;;7.40;58.90;;;;;;5018531;28;20026;-75
2021/04/27 07:40:49;;;;;;;0.73;0.73;;;7.50;58.50;;;;;;5021250;28;20107;-76
2021/04/27 07:43:15;;;;;;;0.73;0.60;;;7.60;58.20;;;;;;5027222;28;20051;-74
2021/04/27 07:45:42;;;;;;;0.82;0.60;;;7.70;58.20;;;;;;5014776;28;20100;-73
2021/04/27 07:48:08;;;;;;;1.50;0.77;;;7.80;58.40;;;;;;5029925;28;20033;-76
2021/04/27 07:50:34;;;;;;;0.88;0.70;;;7.80;57.70;;;;;;5026041;28;20112;-78
2021/04/27 07:53:00;;;;;;;0.77;0.77;;;7.90;57.60;;;;;;5024090;28;20396;-75
2021/04/27 07:55:26;;;;;;;2.50;0.80;;;8.00;56.50;;;;;;5027758;28;20030;-75
2021/04/27 07:57:52;;;;;;;1.35;0.88;;;8.00;57.10;;;;;;5025200;28;20048;-76
2021/04/27 08:00:19;;;;;;;1.33;0.77;;;8.10;57.20;;;;;;5025132;28;20400;-74
2021/04/27 08:02:45;;;;;;;1.25;0.68;;;8.20;57.80;;;;;;5026348;28;20504;-76
2021/04/27 08:05:11;;;;;;;1.15;0.98;;;8.40;55.70;;;;;;5021287;28;20044;-74
2021/04/27 08:07:37;;;;;;;1.77;0.85;;;8.40;55.40;;;;;;5022811;28;20049;-75
2021/04/27 08:10:05;;;;;;;1.83;0.98;;;8.40;53.50;;;;;;5027995;28;20109;-75
2021/04/27 08:12:31;;;;;;;1.65;0.88;;;8.50;54.20;;;;;;5021698;28;20057;-75
2021/04/27 08:14:56;;;;;;;1.35;0.75;;;8.50;52.90;;;;;;5023886;28;20053;-73
2021/04/27 08:17:22;;;;;;;0.98;0.73;;;8.50;53.00;;;;;;5021006;28;20029;-74
2021/04/27 08:19:48;;;;;;;1.95;0.70;;;8.60;53.10;;;;;;5020296;28;20033;-75
2021/04/27 08:22:14;;;;;;;1.92;0.90;;;8.60;52.10;;;;;;5023591;28;20484;-75
2021/04/27 08:24:44;;;;;;;1.02;0.93;;;8.70;54.90;;;;;;5019413;28;20041;-75
2021/04/27 08:27:12;;;;;;;1.00;0.80;;;8.90;52.30;;;;;;5025808;28;20030;-75
2021/04/27 08:29:37;;;;;;;0.98;0.70;;;9.00;51.50;;;;;;5027658;28;20676;-76
2021/04/27 08:32:03;;;;;;;1.48;0.80;;;9.10;52.10;;;;;;5016863;28;20036;-76
2021/04/27 08:34:29;;;;;;;0.60;0.60;;;9.10;48.60;;;;;;5025523;28;20017;-76
2021/04/27 08:36:54;;;;;;;5.55;0.95;;;9.20;50.50;;;;;;5022916;28;20029;-76
2021/04/27 08:39:20;;;;;;;2.10;1.02;;;9.20;53.10;;;;;;5019087;28;20029;-75
2021/04/27 08:41:46;;;;;;;0.43;0.43;;;9.30;52.30;;;;;;5025168;28;20427;-75
2021/04/27 08:44:11;;;;;;;3.45;0.63;;;9.40;51.10;;;;;;5025729;28;20120;-76
2021/04/27 08:46:37;;;;;;;3.10;1.08;;;9.50;51.30;;;;;;5024591;28;20164;-76
2021/04/27 08:49:03;;;;;;;1.33;0.80;;;9.60;50.70;;;;;;5028344;28;20480;-77
2021/04/27 08:51:32;;;;;;;1.70;0.75;;;9.70;50.70;;;;;;5020446;28;20049;-76
2021/04/27 08:53:58;;;;;;;1.30;0.60;;;9.90;49.30;;;;;;5024695;28;20025;-75
2021/04/27 08:56:24;;;;;;;1.17;0.65;;;9.80;49.10;;;;;;5022826;28;20025;-75
2021/04/27 08:58:52;;;;;;;1.27;0.70;;;9.70;47.60;;;;;;5018760;28;20124;-75
2021/04/27 09:01:18;;;;;;;0.75;0.70;;;9.90;49.50;;;;;;5019541;28;20665;-76
2021/04/27 09:03:50;;;;;;;1.48;0.88;;;10.00;51.20;;;;;;5019748;28;20053;-75
2021/04/27 09:06:19;;;;;;;1.25;0.75;;;10.20;48.00;;;;;;5025534;28;20040;-76
2021/04/27 09:08:49;;;;;;;1.20;0.93;;;10.20;47.10;;;;;;5022386;28;20567;-75
2021/04/27 09:11:38;;;;;;;1.13;0.85;;;10.20;48.80;;;;;;5028741;28;20555;-76
2021/04/27 09:14:17;;;;;;;4.05;0.52;;;10.20;47.00;;;;;;5027399;28;20022;-77
2021/04/27 09:16:49;;;;;;;0.60;0.52;;;10.20;50.30;;;;;;5018690;28;20033;-75
2021/04/27 09:19:45;;;;;;;0.70;0.70;;;10.30;47.40;;;;;;5022941;28;20042;-75
2021/04/27 09:22:16;;;;;;;0.60;0.60;;;10.40;46.40;;;;;;5008201;28;20046;-76
2021/04/27 09:24:48;;;;;;;0.60;0.60;;;10.50;47.00;;;;;;5020603;28;20034;-76
2021/04/27 09:27:22;;;;;;;;;;;10.60;46.40;;;;;;5017803;28;20104;-76
2021/04/27 09:29:47;;;;;;;0.68;0.68;;;10.70;46.10;;;;;;5020482;28;19983;-76
2021/04/27 09:32:29;;;;;;;0.73;0.60;;;10.80;47.20;;;;;;5014979;28;20489;-77
2021/04/27 09:34:58;;;;;;;0.77;0.43;;;10.90;45.60;;;;;;5020737;28;20357;-78
2021/04/27 09:37:24;;;;;;;1.40;0.65;;;11.10;46.50;;;;;;5026452;28;20094;-77
2021/04/27 09:39:51;;;;;;;0.98;0.68;;;11.20;44.80;;;;;;5015997;28;20603;-77
2021/04/27 09:42:20;;;;;;;0.88;0.73;;;11.20;45.40;;;;;;5018584;28;20388;-76
2021/04/27 09:44:54;;;;;;;0.80;0.70;;;11.30;46.10;;;;;;5016419;28;20496;-76
2021/04/27 09:47:29;;;;;;;1.40;1.00;;;11.40;45.20;;;;;;5023350;28;20052;-79
2021/04/27 09:50:01;;;;;;;1.75;1.42;;;11.40;45.00;;;;;;4999742;28;20034;-74
2021/04/27 09:52:30;;;;;;;0.55;0.55;;;11.40;45.60;;;;;;5013889;28;20028;-72
2021/04/27 09:55:07;;;;;;;1.58;0.60;;;11.50;45.60;;;;;;5023748;28;20179;-76
2021/04/27 09:57:38;;;;;;;1.50;0.70;;;11.40;44.30;;;;;;5026505;28;20022;-75
2021/04/27 10:00:38;;;;;;;1.05;0.55;;;11.50;44.80;;;;;;5017306;28;20025;-79
2021/04/27 10:04:00;;;;;;;2.45;0.80;;;11.50;42.90;;;;;;5009579;28;20480;-79
2021/04/27 10:06:26;;;;;;;1.93;1.03;;;11.60;43.60;;;;;;4964106;28;20128;-78
2021/04/27 10:08:52;;;;;;;2.33;0.93;;;11.70;44.30;;;;;;5009082;28;20289;-79
2021/04/27 10:11:19;;;;;;;1.85;0.80;;;11.80;45.30;;;;;;5011807;28;20089;-79
2021/04/27 10:13:46;;;;;;;1.40;0.60;;;11.90;45.20;;;;;;5028365;28;20029;-79
2021/04/27 10:16:13;;;;;;;2.95;0.80;;;11.90;44.30;;;;;;5028124;28;20052;-79
2021/04/27 10:18:39;;;;;;;1.05;0.77;;;12.00;45.00;;;;;;5008917;28;20030;-78
2021/04/27 10:21:05;;;;;;;0.65;0.65;;;12.10;46.00;;;;;;4999045;28;20037;-79
2021/04/27 10:23:32;;;;;;;3.17;1.27;;;12.40;46.50;;;;;;5017067;28;20041;-78
2021/04/27 10:25:58;;;;;;;1.35;0.80;;;12.60;44.20;;;;;;5015349;28;20093;-79
2021/04/27 10:28:23;;;;;;;0.85;0.68;;;12.80;42.90;;;;;;5009724;28;20174;-79
2021/04/27 10:30:49;;;;;;;1.38;1.23;;;12.90;42.00;;;;;;5028514;28;20791;-79
2021/04/27 10:33:21;;;;;;;3.90;0.98;;;13.00;44.10;;;;;;5027846;28;20036;-79
2021/04/27 10:36:08;;;;;;;;;;;13.10;42.50;;;;;;5011921;28;20022;-79
2021/04/27 10:38:54;;;;;;;0.95;0.70;;;13.20;43.90;;;;;;5027881;28;19912;-78
2021/04/27 10:41:22;;;;;;;1.05;0.70;;;13.40;42.60;;;;;;5019258;28;20492;-79
2021/04/27 10:43:54;;;;;;;8.95;0.82;;;13.40;40.20;;;;;;5028219;28;20041;-79
2021/04/27 10:46:19;;;;;;;1.58;0.80;;;13.60;40.70;;;;;;5028663;28;20076;-79
2021/04/27 10:48:46;;;;;;;1.00;0.65;;;13.70;38.30;;;;;;5014579;28;20424;-79
2021/04/27 10:51:20;;;;;;;1.65;0.98;;;13.80;40.70;;;;;;5019776;28;20474;-79
2021/04/27 10:54:07;;;;;;;5.07;0.68;;;14.10;42.50;;;;;;5020248;28;20049;-79
2021/04/27 10:56:47;;;;;;;2.17;0.95;;;14.30;41.70;;;;;;4994438;28;20494;-79
2021/04/27 10:59:14;;;;;;;2.42;0.95;;;14.40;40.80;;;;;;5009682;28;20488;-79
2021/04/27 11:01:42;;;;;;;0.77;0.60;;;14.40;38.90;;;;;;5022653;28;20088;-79
2021/04/27 11:04:26;;;;;;;1.48;1.27;;;14.60;40.20;;;;;;5028606;28;20131;-79
2021/04/27 11:07:23;;;;;;;0.85;0.60;;;14.80;40.60;;;;;;4995389;28;20680;-79
2021/04/27 11:09:58;;;;;;;0.85;0.85;;;14.80;35.40;;;;;;5009416;28;20029;-79
2021/04/27 11:12:33;;;;;;;0.80;0.60;;;15.00;35.70;;;;;;5027924;28;20699;-79
2021/04/27 11:15:03;;;;;;;1.45;0.90;;;15.20;36.40;;;;;;5029553;28;20029;-79
2021/04/27 11:17:39;;;;;;;4.07;0.80;;;15.40;36.80;;;;;;5017430;28;20030;-79
2021/04/27 11:20:10;;;;;;;2.15;0.98;;;15.50;36.70;;;;;;5021803;28;20037;-79
2021/04/27 11:22:49;;;;;;;1.10;0.85;;;15.70;35.40;;;;;;5023023;28;20036;-79
2021/04/27 11:25:32;;;;;;;0.88;0.82;;;16.10;36.30;;;;;;5028109;28;20492;-79
2021/04/27 11:27:58;;;;;;;3.10;0.70;;;16.60;36.00;;;;;;5024717;28;20088;-79
2021/04/27 11:30:33;;;;;;;1.13;0.77;;;16.80;34.70;;;;;;5012699;28;20027;-79
2021/04/27 11:33:07;;;;;;;0.75;0.75;;;17.10;32.50;;;;;;5020325;28;20030;-79
2021/04/27 11:35:41;;;;;;;1.83;0.82;;;17.40;32.60;;;;;;5014296;28;20072;-79
2021/04/27 11:38:06;;;;;;;2.05;1.10;;;17.80;32.70;;;;;;5012974;28;20040;-79
2021/04/27 11:40:36;;;;;;;1.50;0.70;;;18.20;31.20;;;;;;5026679;28;20033;-79
2021/04/27 11:43:11;;;;;;;4.05;0.80;;;19.10;31.60;;;;;;5030776;28;20136;-80
2021/04/27 11:45:48;;;;;;;1.55;0.80;;;19.80;28.70;;;;;;5015582;28;20037;-79
2021/04/27 11:48:22;;;;;;;0.88;0.65;;;20.70;29.60;;;;;;5031300;28;20033;-79
2021/04/27 11:50:48;;;;;;;1.35;1.08;;;21.40;28.40;;;;;;5026893;28;20046;-79
2021/04/27 11:53:16;;;;;;;4.22;1.10;;;22.00;29.10;;;;;;5026230;28;20053;-79
2021/04/27 11:55:52;;;;;;;1.40;0.82;;;22.90;28.00;;;;;;5031197;28;20026;-79
2021/04/27 11:58:28;;;;;;;1.90;0.85;;;23.30;26.40;;;;;;5022693;28;20087;-79
2021/04/27 12:01:00;;;;;;;1.10;0.93;;;23.90;25.20;;;;;;5012112;28;20088;-79
2021/04/27 12:03:41;;;;;;;1.15;0.93;;;24.60;24.60;;;;;;5012329;28;20026;-80
2021/04/27 12:06:14;;;;;;;2.15;0.93;;;24.40;24.20;;;;;;5019834;28;20240;-80
2021/04/27 12:08:53;;;;;;;4.07;1.30;;;25.00;24.30;;;;;;5024734;28;20084;-79
2021/04/27 12:11:31;;;;;;;2.25;0.90;;;25.50;24.10;;;;;;5018085;28;20125;-79
2021/04/27 12:14:01;;;;;;;1.85;1.10;;;26.30;24.30;;;;;;5020652;28;20056;-79
2021/04/27 12:16:53;;;;;;;3.85;1.15;;;26.60;22.70;;;;;;5003354;28;20459;-80
2021/04/27 12:19:23;;;;;;;2.80;0.98;;;26.70;22.90;;;;;;5016744;28;20040;-80
2021/04/27 12:21:54;;;;;;;1.65;1.02;;;27.20;23.90;;;;;;5020056;28;20037;-79
2021/04/27 12:24:38;;;;;;;1.48;1.00;;;27.50;22.50;;;;;;5029227;28;20033;-79
2021/04/27 12:27:14;;;;;;;1.20;0.98;;;27.60;23.10;;;;;;5019171;28;20037;-80
2021/04/27 12:29:52;;;;;;;1.52;1.00;;;28.10;20.70;;;;;;5022951;28;20037;-79
2021/04/27 12:32:25;;;;;;;1.13;0.80;;;28.40;21.90;;;;;;5030342;28;20022;-79
2021/04/27 12:34:59;;;;;;;1.92;0.93;;;28.80;22.20;;;;;;5023807;28;20022;-79
2021/04/27 12:37:27;;;;;;;3.58;0.95;;;28.80;22.50;;;;;;5024715;28;20096;-79
2021/04/27 12:39:53;;;;;;;2.75;1.10;;;29.30;21.70;;;;;;5028103;28;20108;-79
2021/04/27 12:42:25;;;;;;;1.20;0.80;;;28.80;20.50;;;;;;5014282;28;20040;-79
2021/04/27 12:44:57;;;;;;;1.20;0.90;;;28.30;21.40;;;;;;5020860;28;20050;-79
2021/04/27 12:47:26;;;;;;;1.23;1.00;;;28.30;21.20;;;;;;5010878;28;20030;-79
2021/04/27 12:50:06;;;;;;;5.35;1.38;;;28.30;21.20;;;;;;5017285;28;20565;-79
2021/04/27 12:52:34;;;;;;;1.02;0.90;;;28.30;21.30;;;;;;5019277;28;20040;-80
2021/04/27 12:55:22;;;;;;;1.20;1.10;;;28.50;21.60;;;;;;5026859;28;20086;-79
2021/04/27 12:57:48;;;;;;;6.57;1.50;;;28.30;20.70;;;;;;5012796;28;20099;-79
2021/04/27 13:00:19;;;;;;;1.63;0.90;;;28.00;21.40;;;;;;5023832;28;20029;-79
2021/04/27 13:02:46;;;;;;;2.35;0.95;;;28.00;21.20;;;;;;5028824;28;20087;-80
2021/04/27 13:05:13;;;;;;;1.13;0.88;;;28.40;21.20;;;;;;5025911;28;20081;-79